Time;durP1;ratioP1;P1;durP2;ratioP2;P2;SDS_P1;SDS_P2;PMS_P1;PMS_P2;Temp;Humidity;BMP_temperature;BMP_pressure;BME280_temperature;BME280_humidity;BME280_pressure;Samples;Min_cycle;Max_cycle;Signal;HPM_P1;HPM_P2
2023/04/09 00:00:34;;;;;;;;;21.50;18.75;;;;;12.17;82.17;102110.72;5013241;28;53962;-70
2023/04/09 00:02:59;;;;;;;;;22.00;18.50;;;;;12.14;82.07;102097.38;5010907;28;45660;-69
2023/04/09 00:05:25;;;;;;;;;25.50;22.75;;;;;12.12;81.76;102101.75;5015434;28;63934;-70
2023/04/09 00:07:50;;;;;;;;;24.75;20.25;;;;;12.08;82.04;102094.56;5013537;28;45822;-71
2023/04/09 00:10:15;;;;;;;;;24.75;17.00;;;;;12.07;82.47;102098.97;5017761;28;48150;-69
2023/04/09 00:12:41;;;;;;;;;30.50;18.50;;;;;12.02;82.64;102090.03;5013702;28;51119;-70
2023/04/09 00:15:07;;;;;;;;;24.50;21.75;;;;;12.03;83.07;102091.81;5016959;28;45435;-70
2023/04/09 00:17:32;;;;;;;;;27.00;22.75;;;;;11.99;83.39;102083.78;5013032;28;45527;-70
2023/04/09 00:19:57;;;;;;;;;22.50;19.25;;;;;12.01;83.33;102084.72;5004924;28;60919;-70
2023/04/09 00:22:23;;;;;;;;;19.50;16.50;;;;;11.99;83.19;102089.97;5017709;28;52839;-70
2023/04/09 00:24:48;;;;;;;;;21.50;17.50;;;;;11.97;83.41;102090.78;5016538;28;45484;-70
2023/04/09 00:27:14;;;;;;;;;25.00;19.25;;;;;11.95;83.57;102092.50;5012716;28;45970;-70
2023/04/09 00:29:39;;;;;;;;;23.25;22.00;;;;;11.92;83.87;102085.34;5018181;28;45468;-70
2023/04/09 00:32:05;;;;;;;;;26.75;19.25;;;;;11.90;84.58;102075.59;5014938;28;46591;-70
2023/04/09 00:34:30;;;;;;;;;23.50;22.00;;;;;11.88;84.46;102079.94;5019914;28;45343;-70
2023/04/09 00:36:56;;;;;;;;;24.25;18.50;;;;;11.88;84.63;102083.50;5013901;28;45486;-70
2023/04/09 00:39:21;;;;;;;;;22.25;18.75;;;;;11.86;84.50;102082.56;5018726;28;47575;-70
2023/04/09 00:41:46;;;;;;;;;23.00;15.50;;;;;11.84;85.08;102080.75;5005212;28;46507;-70
2023/04/09 00:44:12;;;;;;;;;21.00;18.00;;;;;11.81;85.12;102081.50;5006887;28;45392;-70
2023/04/09 00:46:37;;;;;;;;;21.50;18.50;;;;;11.79;85.77;102078.84;5017643;28;61595;-70
2023/04/09 00:49:03;;;;;;;;;15.50;15.25;;;;;11.80;85.66;102071.78;5008379;28;47895;-70
2023/04/09 00:51:28;;;;;;;;;21.25;16.50;;;;;11.78;85.83;102078.81;5011019;28;53739;-69
2023/04/09 00:53:54;;;;;;;;;23.75;21.00;;;;;11.75;85.69;102073.41;5008080;28;45269;-70
2023/04/09 00:56:21;;;;;;;;;21.50;16.75;;;;;11.74;86.00;102069.88;5014059;28;45446;-70
2023/04/09 00:58:46;;;;;;;;;22.75;18.50;;;;;11.74;86.14;102071.63;5010621;28;45430;-70
2023/04/09 01:01:12;;;;;;;;;21.75;21.25;;;;;11.72;86.49;102068.97;5011953;28;60533;-70
2023/04/09 01:03:38;;;;;;;;;30.25;19.25;;;;;11.68;87.03;102064.44;5005202;28;49468;-70
2023/04/09 01:06:07;;;;;;;;;26.75;18.50;;;;;11.70;86.91;102070.66;5011476;28;59146;-70
2023/04/09 01:08:38;;;;;;;;;29.25;22.25;;;;;11.66;87.17;102062.59;5008917;28;45368;-70
2023/04/09 01:11:24;;;;;;;;;27.00;23.00;;;;;11.66;87.07;102066.13;5009058;28;46866;-69
2023/04/09 01:14:08;;;;;;;;;27.75;21.25;;;;;11.65;87.29;102068.72;5006401;28;45349;-70
2023/04/09 01:16:35;;;;;;;;;26.50;23.50;;;;;11.61;87.94;102057.19;5013831;28;45598;-70
2023/04/09 01:19:30;;;;;;;;;29.75;25.50;;;;;11.63;88.28;102063.41;5014878;28;45444;-70
2023/04/09 01:21:56;;;;;;;;;28.00;23.75;;;;;11.63;88.07;102073.09;5004996;28;47280;-69
2023/04/09 01:24:28;;;;;;;;;33.25;25.00;;;;;11.61;87.68;102073.06;5016081;28;55855;-70
2023/04/09 01:27:06;;;;;;;;;32.50;22.50;;;;;11.54;87.29;102058.75;5013976;28;45375;-70
2023/04/09 01:29:35;;;;;;;;;24.00;23.00;;;;;11.53;86.91;102062.25;5019682;28;45491;-69
2023/04/09 01:32:04;;;;;;;;;29.00;22.00;;;;;11.51;87.57;102063.09;5001486;28;46408;-70
2023/04/09 01:34:30;;;;;;;;;32.25;22.50;;;;;11.50;88.01;102054.28;5014153;28;45892;-70
2023/04/09 01:36:58;;;;;;;;;24.50;21.75;;;;;11.49;88.45;102060.38;4999461;28;45460;-70
2023/04/09 01:39:25;;;;;;;;;30.75;25.25;;;;;11.49;88.69;102052.44;5008080;28;45526;-70
2023/04/09 01:41:51;;;;;;;;;31.50;22.00;;;;;11.48;89.31;102052.41;5015990;28;47760;-69
2023/04/09 01:44:18;;;;;;;;;24.25;22.00;;;;;11.48;90.03;102048.03;5010783;28;46618;-70
2023/04/09 01:46:45;;;;;;;;;30.75;21.00;;;;;11.48;89.50;102055.06;5005397;28;45489;-70
2023/04/09 01:49:11;;;;;;;;;29.25;25.25;;;;;11.46;89.44;102051.50;5014460;28;45503;-70
2023/04/09 01:51:37;;;;;;;;;25.75;24.00;;;;;11.44;89.10;102055.81;5016133;28;51031;-70
2023/04/09 01:54:03;;;;;;;;;24.50;22.75;;;;;11.40;88.75;102046.94;5008560;28;45773;-71
2023/04/09 01:56:41;;;;;;;;;31.00;26.00;;;;;11.38;88.88;102048.63;5005988;28;46027;-70
2023/04/09 01:59:06;;;;;;;;;23.50;18.25;;;;;11.37;89.44;102046.84;5007633;28;45344;-70
2023/04/09 02:01:40;;;;;;;;;25.00;20.50;;;;;11.38;90.09;102048.63;5009270;28;55912;-70
2023/04/09 02:04:15;;;;;;;;;25.75;20.50;;;;;11.37;90.62;102036.25;5009890;28;45440;-70
2023/04/09 02:06:47;;;;;;;;;23.75;22.25;;;;;11.33;90.79;102037.03;5007383;28;45399;-69
2023/04/09 02:09:16;;;;;;;;;31.25;25.50;;;;;11.35;90.88;102043.28;5012903;28;45507;-70
2023/04/09 02:11:42;;;;;;;;;35.25;27.25;;;;;11.33;90.88;102038.78;5004402;28;46711;-70
2023/04/09 02:14:09;;;;;;;;;31.00;26.25;;;;;11.33;91.49;102039.66;5010251;28;60223;-70
2023/04/09 02:16:35;;;;;;;;;27.75;24.75;;;;;11.29;91.86;102029.84;5012462;28;45487;-70
2023/04/09 02:19:01;;;;;;;;;29.00;24.00;;;;;11.31;92.12;102022.00;5004784;28;45450;-70
2023/04/09 02:21:27;;;;;;;;;27.00;24.00;;;;;11.30;92.34;102026.38;5012568;28;46432;-70
2023/04/09 02:23:54;;;;;;;;;24.00;18.75;;;;;11.30;92.63;102025.50;5007132;28;45561;-70
2023/04/09 02:26:20;;;;;;;;;28.50;23.75;;;;;11.28;92.85;102026.31;5014632;28;45489;-70
2023/04/09 02:28:45;;;;;;;;;23.00;19.75;;;;;11.31;93.17;102022.00;5003539;28;45484;-70
2023/04/09 02:31:10;;;;;;;;;30.00;26.25;;;;;11.30;92.91;102025.50;5007916;28;48822;-70
2023/04/09 02:33:36;;;;;;;;;26.50;23.00;;;;;11.26;93.12;102016.56;5009505;28;45310;-70
2023/04/09 02:36:01;;;;;;;;;21.50;20.00;;;;;11.28;93.21;102020.13;5014279;28;45473;-70
2023/04/09 02:38:26;;;;;;;;;28.25;24.75;;;;;11.27;93.46;102013.97;5000213;28;52515;-70
2023/04/09 02:40:52;;;;;;;;;28.75;24.50;;;;;11.26;93.74;102012.19;5007114;28;45772;-70
2023/04/09 02:43:17;;;;;;;;;29.50;23.50;;;;;11.24;93.92;102013.00;5007966;28;49765;-71
2023/04/09 02:45:42;;;;;;;;;31.75;24.00;;;;;11.23;94.20;102017.38;5008028;28;53722;-70
2023/04/09 02:48:08;;;;;;;;;25.00;21.75;;;;;11.21;94.59;102004.97;5007914;28;46371;-70
2023/04/09 02:50:33;;;;;;;;;28.25;21.75;;;;;11.18;94.07;102005.78;5008983;28;52382;-70
2023/04/09 02:52:58;;;;;;;;;33.00;24.25;;;;;11.19;93.94;102018.16;5011005;28;45286;-70
2023/04/09 02:55:24;;;;;;;;;29.50;22.50;;;;;11.17;93.91;102014.56;5008952;28;53240;-70
2023/04/09 02:57:49;;;;;;;;;30.50;26.00;;;;;11.11;94.12;102009.09;5013654;28;45313;-70
2023/04/09 03:00:15;;;;;;;;;31.00;19.50;;;;;11.12;94.21;102024.09;5014247;28;48498;-70
2023/04/09 03:02:40;;;;;;;;;37.50;28.75;;;;;11.06;94.36;102002.78;5002783;28;45456;-70
2023/04/09 03:05:06;;;;;;;;;29.75;25.25;;;;;11.03;94.33;102000.09;5006457;28;45303;-70
2023/04/09 03:07:31;;;;;;;;;30.75;23.75;;;;;11.04;94.60;102008.91;5003996;28;46080;-70
2023/04/09 03:09:57;;;;;;;;;32.00;23.25;;;;;11.00;94.74;102002.63;5006435;28;46367;-70
2023/04/09 03:12:22;;;;;;;;;39.25;29.50;;;;;10.98;94.67;102005.25;5010379;28;45411;-70
2023/04/09 03:14:47;;;;;;;;;28.25;25.75;;;;;10.96;95.02;102000.75;5007507;28;50082;-70
2023/04/09 03:17:13;;;;;;;;;27.25;21.75;;;;;10.95;95.20;101998.97;5003200;28;45507;-70
2023/04/09 03:19:38;;;;;;;;;28.50;25.75;;;;;10.95;95.22;102002.50;5014873;28;51999;-70
2023/04/09 03:22:03;;;;;;;;;35.00;28.25;;;;;10.90;95.10;101992.66;5011124;28;64527;-69
2023/04/09 03:24:30;;;;;;;;;31.50;27.75;;;;;10.90;95.49;102001.47;5003196;28;58807;-70
2023/04/09 03:26:56;;;;;;;;;33.50;26.00;;;;;10.88;95.49;102000.56;5012781;28;45548;-70
2023/04/09 03:29:21;;;;;;;;;29.75;25.75;;;;;10.87;95.52;101990.84;5004581;28;46195;-70
2023/04/09 03:31:47;;;;;;;;;32.00;25.00;;;;;10.82;95.72;101987.16;5002800;28;64254;-70
2023/04/09 03:34:12;;;;;;;;;32.25;26.50;;;;;10.84;95.56;102001.31;5010246;28;45337;-70
2023/04/09 03:36:37;;;;;;;;;31.75;23.75;;;;;10.83;95.72;102001.28;5008302;28;46020;-70
2023/04/09 03:39:03;;;;;;;;;31.25;27.75;;;;;10.78;95.96;101995.84;5011636;28;46572;-70
2023/04/09 03:41:28;;;;;;;;;39.50;30.75;;;;;10.79;95.66;101987.06;5004374;28;45371;-70
2023/04/09 03:43:53;;;;;;;;;36.25;28.00;;;;;10.74;95.86;101991.31;5002121;28;49827;-70
2023/04/09 03:46:19;;;;;;;;;36.25;30.00;;;;;10.76;96.30;101984.34;5003518;28;52530;-69
2023/04/09 03:48:44;;;;;;;;;39.75;32.75;;;;;10.72;96.28;101986.00;5014013;28;68169;-70
2023/04/09 03:51:17;;;;;;;;;39.75;30.25;;;;;10.71;96.50;101981.56;5011711;28;45507;-70
2023/04/09 03:53:42;;;;;;;;;38.25;31.50;;;;;10.69;96.30;101988.53;5007167;28;45592;-70
2023/04/09 03:56:09;;;;;;;;;29.75;25.25;;;;;10.69;96.46;101982.38;5008402;28;45519;-70
2023/04/09 03:58:34;;;;;;;;;30.25;27.75;;;;;10.63;96.58;101974.28;5011966;28;46574;-70
2023/04/09 04:01:00;;;;;;;;;38.00;27.75;;;;;10.65;96.79;101983.13;5002621;28;45827;-70
2023/04/09 04:03:26;;;;;;;;;41.50;30.00;;;;;10.59;96.76;101973.28;5012513;28;45265;-70
2023/04/09 04:05:51;;;;;;;;;33.75;30.25;;;;;10.59;96.80;101975.03;4996167;28;45495;-71
2023/04/09 04:08:16;;;;;;;;;23.00;21.50;;;;;10.55;97.01;101966.13;5010561;28;51522;-71
2023/04/09 04:10:42;;;;;;;;;27.50;23.00;;;;;10.54;97.21;101958.16;5003489;28;57411;-71
2023/04/09 04:13:07;;;;;;;;;32.00;29.00;;;;;10.52;97.27;101971.31;4998280;28;55167;-71
2023/04/09 04:15:38;;;;;;;;;36.50;26.00;;;;;10.49;97.14;101961.56;5012145;28;45490;-70
2023/04/09 04:18:03;;;;;;;;;31.00;28.00;;;;;10.46;97.25;101966.75;5008613;28;46275;-72
2023/04/09 04:20:28;;;;;;;;;36.25;30.25;;;;;10.48;97.33;101972.97;5017230;28;45427;-71
2023/04/09 04:22:54;;;;;;;;;35.25;25.50;;;;;10.46;97.45;101974.66;5003560;28;54528;-71
2023/04/09 04:25:19;;;;;;;;;34.75;25.75;;;;;10.42;97.72;101972.78;5005933;28;45382;-71
2023/04/09 04:27:45;;;;;;;;;31.75;26.75;;;;;10.41;97.92;101971.00;5013491;28;59304;-71
2023/04/09 04:30:10;;;;;;;;;32.50;28.25;;;;;10.41;97.97;101980.66;5009783;28;45324;-71
2023/04/09 04:32:35;;;;;;;;;37.50;29.75;;;;;10.37;98.16;101969.09;5014929;28;45577;-71
2023/04/09 04:35:01;;;;;;;;;31.75;30.25;;;;;10.37;98.10;101977.03;5010779;28;45205;-71
2023/04/09 04:37:26;;;;;;;;;32.25;27.50;;;;;10.34;98.24;101979.59;5007237;28;45758;-71
2023/04/09 04:39:52;;;;;;;;;32.25;29.50;;;;;10.33;98.27;101983.06;5015295;28;53000;-71
2023/04/09 04:42:17;;;;;;;;;36.75;28.00;;;;;10.33;98.22;101971.59;5013486;28;45185;-71
2023/04/09 04:44:43;;;;;;;;;34.00;30.50;;;;;10.30;98.53;101988.25;5008684;28;45580;-71
2023/04/09 04:47:09;;;;;;;;;33.25;25.00;;;;;10.28;98.38;101983.75;4999047;28;46601;-71
2023/04/09 04:49:34;;;;;;;;;36.50;29.00;;;;;10.27;98.65;101990.78;5005892;28;45321;-70
2023/04/09 04:51:59;;;;;;;;;38.75;29.50;;;;;10.25;98.59;101984.59;5000497;28;45793;-71
2023/04/09 04:54:25;;;;;;;;;28.25;24.25;;;;;10.23;98.51;101991.53;5005628;28;45341;-71
2023/04/09 04:56:50;;;;;;;;;30.00;27.25;;;;;10.22;98.45;101992.34;5003913;28;46491;-71
2023/04/09 04:59:15;;;;;;;;;32.50;27.75;;;;;10.19;98.60;101990.53;5015158;28;45412;-71
2023/04/09 05:01:41;;;;;;;;;34.25;29.75;;;;;10.18;98.80;101990.50;5005338;28;55704;-71
2023/04/09 05:04:06;;;;;;;;;30.75;24.25;;;;;10.15;98.85;101993.91;5009822;28;56843;-71
2023/04/09 05:06:32;;;;;;;;;37.00;28.75;;;;;10.14;98.84;101991.25;5009537;28;57052;-71
2023/04/09 05:08:57;;;;;;;;;42.50;32.75;;;;;10.13;98.93;102000.00;5013571;28;45295;-71
2023/04/09 05:11:27;;;;;;;;;28.50;25.25;;;;;10.12;99.39;102000.84;5014838;28;45440;-71
2023/04/09 05:13:52;;;;;;;;;27.75;23.25;;;;;10.10;99.24;101999.91;5005084;28;45685;-72
2023/04/09 05:16:20;;;;;;;;;32.00;27.00;;;;;10.11;99.49;102006.97;5001038;28;46401;-71
2023/04/09 05:18:46;;;;;;;;;38.00;28.00;;;;;10.09;99.73;102008.66;5011643;28;45524;-72
2023/04/09 05:21:12;;;;;;;;;36.25;25.75;;;;;10.09;99.40;102009.56;5009669;28;45428;-71
2023/04/09 05:23:37;;;;;;;;;33.00;28.75;;;;;10.07;99.99;102007.75;5006733;28;61090;-71
2023/04/09 05:26:02;;;;;;;;;33.75;27.50;;;;;10.07;99.73;102003.34;5012047;28;45635;-71
2023/04/09 05:28:28;;;;;;;;;33.25;28.25;;;;;10.05;99.89;102009.41;5009742;28;45259;-71
2023/04/09 05:30:53;;;;;;;;;34.50;25.75;;;;;10.05;99.66;102015.59;5005377;28;51746;-71
2023/04/09 05:33:19;;;;;;;;;30.00;25.50;;;;;10.05;99.89;102009.41;5003384;28;45533;-71
2023/04/09 05:35:44;;;;;;;;;30.25;27.25;;;;;10.05;100.00;102012.06;5001205;28;45749;-71
2023/04/09 05:38:10;;;;;;;;;36.00;29.50;;;;;10.06;100.00;102019.13;5005937;28;45546;-72
2023/04/09 05:40:35;;;;;;;;;37.75;28.50;;;;;10.06;100.00;102025.28;5012357;28;45575;-71
2023/04/09 05:43:01;;;;;;;;;35.00;27.50;;;;;10.06;100.00;102017.38;5004995;28;45561;-71
2023/04/09 05:45:27;;;;;;;;;35.00;27.50;;;;;10.04;100.00;102021.72;5010538;28;45583;-71
2023/04/09 05:47:53;;;;;;;;;30.50;27.75;;;;;10.06;100.00;102020.00;5008754;28;45447;-70
2023/04/09 05:50:18;;;;;;;;;37.50;30.50;;;;;10.09;100.00;102024.50;5013213;28;45342;-70
2023/04/09 05:52:44;;;;;;;;;38.25;29.00;;;;;10.09;100.00;102020.13;5006136;28;45463;-71
2023/04/09 05:55:09;;;;;;;;;35.00;29.75;;;;;10.09;100.00;102024.50;5011950;28;47372;-71
2023/04/09 05:57:35;;;;;;;;;41.25;27.50;;;;;10.11;100.00;102020.16;4998975;28;45426;-71
2023/04/09 06:00:00;;;;;;;;;41.00;27.75;;;;;10.13;100.00;102026.41;5006106;28;45277;-71
2023/04/09 06:02:26;;;;;;;;;36.00;30.00;;;;;10.14;100.00;102021.16;4998578;28;45277;-71
2023/04/09 06:04:51;;;;;;;;;29.25;28.00;;;;;10.16;100.00;102024.75;5011628;28;52249;-71
2023/04/09 06:07:17;;;;;;;;;41.75;33.75;;;;;10.20;100.00;102023.09;5003889;28;45352;-71
2023/04/09 06:09:45;;;;;;;;;35.75;34.50;;;;;10.22;100.00;102024.03;5001958;28;45347;-71
2023/04/09 06:12:12;;;;;;;;;36.75;29.75;;;;;10.24;100.00;102032.94;5007887;28;45507;-71
2023/04/09 06:14:37;;;;;;;;;35.00;29.50;;;;;10.28;100.00;102033.91;5013322;28;47701;-71
2023/04/09 06:17:02;;;;;;;;;37.75;30.75;;;;;10.30;100.00;102033.13;5002253;28;50495;-71
2023/04/09 06:19:28;;;;;;;;;38.75;34.75;;;;;10.31;100.00;102032.28;5003128;28;45321;-71
2023/04/09 06:21:53;;;;;;;;;39.25;29.00;;;;;10.33;100.00;102030.56;5005792;28;45661;-71
2023/04/09 06:24:18;;;;;;;;;47.50;35.00;;;;;10.35;100.00;102034.19;5005888;28;60798;-71
2023/04/09 06:26:44;;;;;;;;;33.25;31.00;;;;;10.39;100.00;102040.47;5000923;28;45344;-71
2023/04/09 06:29:10;;;;;;;;;38.00;31.25;;;;;10.41;100.00;102034.38;5007144;28;46215;-71
2023/04/09 06:31:35;;;;;;;;;39.50;34.75;;;;;10.42;100.00;102035.25;5001853;28;60883;-71
2023/04/09 06:34:00;;;;;;;;;39.00;33.50;;;;;10.46;100.00;102032.75;5002805;28;45644;-71
2023/04/09 06:36:26;;;;;;;;;40.50;34.25;;;;;10.49;100.00;102030.22;5008167;28;45315;-71
2023/04/09 06:38:52;;;;;;;;;43.75;35.25;;;;;10.55;100.00;102036.56;5007632;28;45329;-72
2023/04/09 06:41:21;;;;;;;;;46.75;38.00;;;;;10.59;100.00;102038.41;5005707;28;45292;-72
2023/04/09 06:43:47;;;;;;;;;42.25;33.00;;;;;10.66;100.00;102035.13;4999801;28;45335;-72
2023/04/09 06:46:16;;;;;;;;;52.00;39.00;;;;;10.70;100.00;102042.25;5010801;28;45774;-71
2023/04/09 06:48:43;;;;;;;;;46.25;35.50;;;;;10.72;100.00;102038.84;5010196;28;45422;-71
2023/04/09 06:51:08;;;;;;;;;38.00;29.75;;;;;10.79;100.00;102031.09;5008904;28;45604;-72
2023/04/09 06:53:34;;;;;;;;;55.00;40.00;;;;;10.83;100.00;102031.22;5005094;28;46521;-72
2023/04/09 06:56:00;;;;;;;;;49.75;40.25;;;;;10.87;100.00;102021.66;5011304;28;45372;-71
2023/04/09 06:58:25;;;;;;;;;46.00;39.50;;;;;10.93;100.00;102032.41;5007350;28;45425;-72
2023/04/09 07:00:50;;;;;;;;;57.25;43.50;;;;;10.94;100.00;102036.81;5006578;28;45531;-72
2023/04/09 07:03:16;;;;;;;;;56.00;40.00;;;;;10.98;100.00;102033.41;5010436;28;70775;-71
2023/04/09 07:05:41;;;;;;;;;55.25;42.50;;;;;11.04;100.00;102030.06;5010313;28;45486;-71
2023/04/09 07:08:07;;;;;;;;;51.75;41.75;;;;;11.03;100.00;102029.16;5006677;28;46026;-72
2023/04/09 07:10:32;;;;;;;;;58.50;40.25;;;;;11.11;100.00;102032.00;5003138;28;45669;-71
2023/04/09 07:12:57;;;;;;;;;48.75;38.25;;;;;11.16;100.00;102033.03;5009531;28;61958;-71
2023/04/09 07:15:23;;;;;;;;;43.75;37.00;;;;;11.19;100.00;102030.50;5013606;28;68329;-71
2023/04/09 07:17:48;;;;;;;;;47.00;37.75;;;;;11.26;100.00;102035.06;5011944;28;52570;-71
2023/04/09 07:20:13;;;;;;;;;47.25;35.25;;;;;11.29;100.00;102035.16;5009467;28;45345;-71
2023/04/09 07:22:39;;;;;;;;;49.50;34.75;;;;;11.33;100.00;102026.44;5009719;28;64937;-71
2023/04/09 07:25:05;;;;;;;;;44.25;37.50;;;;;11.38;100.00;102032.75;5012560;28;45367;-71
2023/04/09 07:27:30;;;;;;;;;45.00;39.00;;;;;11.45;100.00;102025.88;5011923;28;45485;-72
2023/04/09 07:29:57;;;;;;;;;47.00;33.50;;;;;11.51;100.00;102026.06;5009613;28;45603;-71
2023/04/09 07:32:23;;;;;;;;;45.00;36.50;;;;;11.57;100.00;102025.34;5004047;28;46837;-71
2023/04/09 07:34:51;;;;;;;;;52.25;38.00;;;;;11.60;100.00;102028.03;5011651;28;45322;-71
2023/04/09 07:37:17;;;;;;;;;48.25;36.25;;;;;11.66;100.00;102025.53;5010965;28;45393;-71
2023/04/09 07:39:42;;;;;;;;;46.50;35.00;;;;;11.71;100.00;102029.19;5011973;28;45638;-71
2023/04/09 07:42:08;;;;;;;;;49.75;37.75;;;;;11.76;100.00;102032.88;5011459;28;46391;-72
2023/04/09 07:44:37;;;;;;;;;43.50;33.00;;;;;11.79;100.00;102038.25;5009137;28;45419;-72
2023/04/09 07:47:03;;;;;;;;;43.25;34.00;;;;;11.83;100.00;102036.63;5005115;28;45753;-71
2023/04/09 07:49:29;;;;;;;;;41.50;37.00;;;;;11.83;100.00;102032.22;5013684;28;45511;-72
2023/04/09 07:51:55;;;;;;;;;36.50;32.00;;;;;11.87;100.00;102041.09;5006423;28;62850;-72
2023/04/09 07:54:20;;;;;;;;;48.00;36.75;;;;;11.89;100.00;102034.13;5016877;28;45511;-73
2023/04/09 07:56:46;;;;;;;;;47.50;38.00;;;;;11.93;100.00;102030.66;5011505;28;59264;-72
2023/04/09 07:59:14;;;;;;;;;48.00;35.00;;;;;11.97;100.00;102028.13;5009599;28;45611;-73
2023/04/09 08:01:39;;;;;;;;;43.00;34.00;;;;;12.02;100.00;102033.53;5012695;28;46580;-72
2023/04/09 08:04:05;;;;;;;;;48.50;38.25;;;;;12.05;100.00;102028.34;5016787;28;45349;-72
2023/04/09 08:06:30;;;;;;;;;40.25;32.75;;;;;12.06;100.00;102033.66;5013061;28;45421;-73
2023/04/09 08:08:55;;;;;;;;;43.50;36.50;;;;;12.10;100.00;102033.75;5012336;28;62444;-71
2023/04/09 08:11:24;;;;;;;;;44.50;36.00;;;;;12.14;100.00;102033.84;5010031;28;62902;-74
2023/04/09 08:13:52;;;;;;;;;46.00;38.00;;;;;12.18;100.00;102035.69;5010476;28;45551;-71
2023/04/09 08:16:18;;;;;;;;;40.00;33.25;;;;;12.24;100.00;102027.00;5013924;28;45424;-72
2023/04/09 08:18:44;;;;;;;;;45.50;36.25;;;;;12.28;100.00;102029.75;5010712;28;45312;-70
2023/04/09 08:21:10;;;;;;;;;47.25;38.00;;;;;12.31;100.00;102026.31;5017474;28;46616;-72
2023/04/09 08:23:36;;;;;;;;;49.75;39.50;;;;;12.37;100.00;102031.75;5008960;28;45488;-70
2023/04/09 08:26:02;;;;;;;;;52.00;35.00;;;;;12.44;100.00;102038.06;5014013;28;45408;-71
2023/04/09 08:28:27;;;;;;;;;42.75;35.75;;;;;12.50;100.00;102025.84;5013163;28;45434;-73
2023/04/09 08:30:52;;;;;;;;;52.25;38.50;;;;;12.58;100.00;102033.97;5011868;28;57700;-72
2023/04/09 08:33:18;;;;;;;;;50.75;37.00;;;;;12.63;100.00;102024.38;5009976;28;68568;-72
2023/04/09 08:35:43;;;;;;;;;48.25;39.00;;;;;12.68;100.00;102025.38;5014522;28;61542;-71
2023/04/09 08:38:09;;;;;;;;;45.00;40.00;;;;;12.72;100.00;102019.25;5015669;28;45341;-71
2023/04/09 08:40:35;;;;;;;;;45.75;37.25;;;;;12.76;100.00;102017.56;5010763;28;68509;-71
2023/04/09 08:43:03;;;;;;;;;41.25;35.50;;;;;12.83;100.00;102022.13;5013529;28;45527;-72
2023/04/09 08:45:29;;;;;;;;;50.50;38.50;;;;;12.91;100.00;102011.69;5014367;28;45886;-72
2023/04/09 08:47:58;;;;;;;;;49.50;36.00;;;;;12.97;100.00;102020.66;5012377;28;52167;-72
2023/04/09 08:50:24;;;;;;;;;45.75;35.75;;;;;13.05;100.00;102015.53;5010936;28;47349;-71
2023/04/09 08:52:49;;;;;;;;;52.25;38.50;;;;;13.13;100.00;102013.00;5009575;28;45468;-73
2023/04/09 08:55:15;;;;;;;;;47.75;37.75;;;;;13.20;100.00;102002.53;5012044;28;45343;-73
2023/04/09 08:57:41;;;;;;;;;44.00;33.75;;;;;13.27;100.00;102004.50;5012935;28;45298;-73
2023/04/09 09:00:07;;;;;;;;;49.50;36.50;;;;;13.35;100.00;102010.81;5007282;28;47534;-72
2023/04/09 09:02:32;;;;;;;;;43.50;36.00;;;;;13.42;100.00;102006.50;5011613;28;45499;-73
2023/04/09 09:04:59;;;;;;;;;49.75;32.50;;;;;13.48;100.00;101996.03;5012475;28;45458;-73
2023/04/09 09:07:27;;;;;;;;;44.25;35.00;;;;;13.57;100.00;101998.84;5008938;28;45539;-72
2023/04/09 09:09:57;;;;;;;;;49.75;36.25;;;;;13.65;100.00;101993.66;5011404;28;46832;-73
2023/04/09 09:12:40;;;;;;;;;45.00;37.25;;;;;13.75;100.00;101994.72;5005179;28;46461;-73
2023/04/09 09:15:25;;;;;;;;;53.25;40.00;;;;;13.83;100.00;101998.38;5005739;28;45483;-73
2023/04/09 09:17:58;;;;;;;;;45.50;35.50;;;;;13.92;100.00;101989.69;5014296;28;45468;-73
2023/04/09 09:20:25;;;;;;;;;48.00;38.00;;;;;14.00;100.00;101991.56;5014121;28;46204;-73
2023/04/09 09:22:53;;;;;;;;;49.50;37.00;;;;;14.08;100.00;101989.94;5008253;28;45475;-72
2023/04/09 09:25:23;;;;;;;;;42.00;35.25;;;;;14.16;100.00;101992.69;5007599;28;45468;-74
2023/04/09 09:27:49;;;;;;;;;45.25;35.00;;;;;14.24;100.00;101991.06;5011939;28;45512;-72
2023/04/09 09:30:25;;;;;;;;;42.50;38.00;;;;;14.34;100.00;101986.78;5016242;28;45816;-76
2023/04/09 09:32:54;;;;;;;;;41.50;32.25;;;;;14.39;100.00;101980.66;5009906;28;45459;-73
2023/04/09 09:35:19;;;;;;;;;44.00;34.50;;;;;14.47;100.00;101978.13;5011099;28;45514;-74
2023/04/09 09:37:45;;;;;;;;;46.50;32.25;;;;;14.55;99.43;101967.59;5011826;28;45373;-71
2023/04/09 09:40:25;;;;;;;;;47.50;37.25;;;;;14.61;99.73;101960.59;5009220;28;57536;-70
2023/04/09 09:42:55;;;;;;;;;33.75;32.25;;;;;14.70;99.54;101965.16;5009077;28;45554;-71
2023/04/09 09:45:20;;;;;;;;;35.00;32.00;;;;;14.77;99.76;101953.69;5011206;28;45575;-71
2023/04/09 09:47:46;;;;;;;;;32.00;25.75;;;;;14.85;99.16;101954.66;5012018;28;45662;-71
2023/04/09 09:50:11;;;;;;;;;25.50;23.75;;;;;14.93;98.73;101957.44;5011859;28;47702;-71
2023/04/09 09:52:38;;;;;;;;;30.75;23.25;;;;;15.04;97.26;101960.19;5010841;28;54954;-71
2023/04/09 09:55:04;;;;;;;;;26.00;21.25;;;;;15.07;97.38;101955.78;5006480;28;63805;-71
2023/04/09 09:57:31;;;;;;;;;27.25;21.75;;;;;15.14;96.95;101962.97;5011025;28;45388;-70
2023/04/09 10:00:00;;;;;;;;;29.00;23.00;;;;;15.20;96.35;101960.38;5006570;28;47528;-70
2023/04/09 10:02:29;;;;;;;;;25.00;19.25;;;;;15.28;95.35;101957.78;5008836;28;45499;-70
2023/04/09 10:04:55;;;;;;;;;26.75;20.75;;;;;15.32;95.29;101946.28;5007601;28;45540;-70
2023/04/09 10:07:21;;;;;;;;;17.33;15.67;;;;;15.36;95.42;101937.47;4999579;28;63551;-70
2023/04/09 10:09:49;;;;;;;;;21.50;17.25;;;;;15.41;92.32;101946.38;5011673;28;46481;-70
2023/04/09 10:12:16;;;;;;;;;17.67;14.33;;;;;15.45;92.54;101944.66;5002392;28;45452;-70
2023/04/09 10:14:41;;;;;;;;;15.67;15.33;;;;;15.48;92.24;101939.34;5004322;28;45395;-72
2023/04/09 10:17:07;;;;;;;;;17.33;14.00;;;;;15.55;91.89;101948.25;5005306;28;45523;-70
2023/04/09 10:19:41;;;;;;;;;14.00;11.67;;;;;15.61;91.83;101938.56;5013330;28;46415;-70
2023/04/09 10:22:11;;;;;;;;;12.67;12.33;;;;;15.67;91.71;101930.66;5236051;22;46123;-70
2023/04/09 10:24:36;;;;;;;;;17.33;13.33;;;;;15.77;91.91;101941.38;4999449;28;45476;-70
2023/04/09 10:27:12;;;;;;;;;18.67;12.67;;;;;15.85;91.15;101934.31;5016022;28;52719;-70
2023/04/09 10:29:48;;;;;;;;;12.00;12.00;;;;;15.92;90.93;101939.69;5014941;28;47414;-70
2023/04/09 10:32:26;;;;;;;;;12.00;10.00;;;;;16.02;90.49;101937.09;5014261;28;45314;-70
2023/04/09 10:34:56;;;;;;;;;10.33;9.67;;;;;16.10;89.50;101930.94;4997663;28;45452;-70
2023/04/09 10:37:26;;;;;;;;;9.00;9.00;;;;;16.17;89.00;101930.09;5015639;28;45547;-70
2023/04/09 10:39:52;;;;;;;;;11.67;10.33;;;;;16.25;88.65;101932.81;5016110;28;46904;-70
2023/04/09 10:42:23;;;;;;;;;15.33;13.00;;;;;16.32;87.68;101920.41;5015767;28;45516;-70
2023/04/09 10:45:08;;;;;;;;;12.00;9.00;;;;;16.41;86.15;101926.66;5014343;28;45317;-70
2023/04/09 10:47:35;;;;;;;;;13.33;10.00;;;;;16.47;85.36;101928.47;5016219;28;45320;-69
2023/04/09 10:50:21;;;;;;;;;11.00;8.67;;;;;16.50;83.76;101913.34;5015858;28;47452;-70
2023/04/09 10:52:51;;;;;;;;;11.67;10.67;;;;;16.59;83.07;101907.19;5015917;28;45360;-70
2023/04/09 10:55:37;;;;;;;;;11.33;11.33;;;;;16.68;82.31;101920.56;5016030;28;45355;-71
2023/04/09 10:58:04;;;;;;;;;11.00;9.67;;;;;16.77;80.79;101920.59;5016078;28;45434;-70
2023/04/09 11:00:30;;;;;;;;;14.33;9.00;;;;;16.86;80.22;101924.19;5015930;28;45486;-70
2023/04/09 11:03:01;;;;;;;;;12.00;10.33;;;;;16.98;78.77;101927.75;5014735;28;45507;-70
2023/04/09 11:05:34;;;;;;;;;12.00;11.67;;;;;17.07;77.83;101926.91;5014231;28;45431;-70